sensor_id;sensor_type;location;lat;lon;timestamp;P1;durP1;ratioP1;P2;durP2;ratioP2
6651;SDS011;3362;50.892;10.692;2023-06-26T00:02:18;4.97;;;3.30;;
6651;SDS011;3362;50.892;10.692;2023-06-26T00:04:44;4.85;;;4.00;;
6651;SDS011;3362;50.892;10.692;2023-06-26T00:07:11;6.32;;;3.58;;
6651;SDS011;3362;50.892;10.692;2023-06-26T00:09:37;5.32;;;3.67;;
6651;SDS011;3362;50.892;10.692;2023-06-26T00:12:05;9.15;;;4.22;;
6651;SDS011;3362;50.892;10.692;2023-06-26T00:14:31;4.60;;;4.00;;
6651;SDS011;3362;50.892;10.692;2023-06-26T00:16:57;5.88;;;3.78;;
6651;SDS011;3362;50.892;10.692;2023-06-26T00:19:23;3.90;;;3.25;;
6651;SDS011;3362;50.892;10.692;2023-06-26T00:21:50;5.28;;;3.92;;
6651;SDS011;3362;50.892;10.692;2023-06-26T00:24:17;4.78;;;3.83;;
6651;SDS011;3362;50.892;10.692;2023-06-26T00:26:43;6.00;;;4.53;;
6651;SDS011;3362;50.892;10.692;2023-06-26T00:29:10;4.38;;;3.65;;
6651;SDS011;3362;50.892;10.692;2023-06-26T00:31:36;6.10;;;3.95;;
6651;SDS011;3362;50.892;10.692;2023-06-26T00:34:03;7.85;;;4.38;;
6651;SDS011;3362;50.892;10.692;2023-06-26T00:36:29;4.82;;;3.53;;
6651;SDS011;3362;50.892;10.692;2023-06-26T00:38:55;7.18;;;3.50;;
6651;SDS011;3362;50.892;10.692;2023-06-26T00:41:22;8.70;;;3.67;;
6651;SDS011;3362;50.892;10.692;2023-06-26T00:43:48;9.93;;;3.40;;
6651;SDS011;3362;50.892;10.692;2023-06-26T00:46:15;6.88;;;3.33;;
6651;SDS011;3362;50.892;10.692;2023-06-26T00:48:42;7.55;;;3.53;;
6651;SDS011;3362;50.892;10.692;2023-06-26T00:51:08;7.80;;;3.97;;
6651;SDS011;3362;50.892;10.692;2023-06-26T00:53:35;9.60;;;3.88;;
6651;SDS011;3362;50.892;10.692;2023-06-26T00:56:01;6.88;;;3.50;;
6651;SDS011;3362;50.892;10.692;2023-06-26T00:58:28;5.03;;;4.13;;
6651;SDS011;3362;50.892;10.692;2023-06-26T01:00:54;5.88;;;3.60;;
6651;SDS011;3362;50.892;10.692;2023-06-26T01:03:22;8.32;;;4.40;;
6651;SDS011;3362;50.892;10.692;2023-06-26T01:05:48;7.68;;;4.30;;
6651;SDS011;3362;50.892;10.692;2023-06-26T01:08:15;8.68;;;4.22;;
6651;SDS011;3362;50.892;10.692;2023-06-26T01:10:42;9.27;;;4.13;;
6651;SDS011;3362;50.892;10.692;2023-06-26T01:13:08;6.10;;;4.03;;
6651;SDS011;3362;50.892;10.692;2023-06-26T01:15:34;7.13;;;3.88;;
6651;SDS011;3362;50.892;10.692;2023-06-26T01:18:00;10.38;;;4.72;;
6651;SDS011;3362;50.892;10.692;2023-06-26T01:20:29;6.78;;;3.92;;
6651;SDS011;3362;50.892;10.692;2023-06-26T01:22:59;7.28;;;4.90;;
6651;SDS011;3362;50.892;10.692;2023-06-26T01:25:29;6.30;;;4.35;;
6651;SDS011;3362;50.892;10.692;2023-06-26T01:28:04;8.35;;;4.07;;
6651;SDS011;3362;50.892;10.692;2023-06-26T01:30:31;8.00;;;3.70;;
6651;SDS011;3362;50.892;10.692;2023-06-26T01:32:58;7.07;;;4.22;;
6651;SDS011;3362;50.892;10.692;2023-06-26T01:35:25;10.02;;;4.70;;
6651;SDS011;3362;50.892;10.692;2023-06-26T01:37:52;6.18;;;4.00;;
6651;SDS011;3362;50.892;10.692;2023-06-26T01:40:18;12.55;;;4.10;;
6651;SDS011;3362;50.892;10.692;2023-06-26T01:42:44;6.75;;;3.65;;
6651;SDS011;3362;50.892;10.692;2023-06-26T01:45:14;5.20;;;4.03;;
6651;SDS011;3362;50.892;10.692;2023-06-26T01:47:43;8.35;;;3.90;;
6651;SDS011;3362;50.892;10.692;2023-06-26T01:50:11;8.82;;;4.05;;
6651;SDS011;3362;50.892;10.692;2023-06-26T01:52:40;6.30;;;4.05;;
6651;SDS011;3362;50.892;10.692;2023-06-26T01:55:08;7.00;;;4.20;;
6651;SDS011;3362;50.892;10.692;2023-06-26T01:57:36;8.50;;;4.30;;
6651;SDS011;3362;50.892;10.692;2023-06-26T02:00:04;11.98;;;3.95;;
6651;SDS011;3362;50.892;10.692;2023-06-26T02:02:36;7.05;;;3.65;;
6651;SDS011;3362;50.892;10.692;2023-06-26T02:05:02;6.13;;;4.05;;
6651;SDS011;3362;50.892;10.692;2023-06-26T02:07:29;5.32;;;3.78;;
6651;SDS011;3362;50.892;10.692;2023-06-26T02:09:55;8.95;;;4.05;;
6651;SDS011;3362;50.892;10.692;2023-06-26T02:12:21;7.55;;;3.90;;
6651;SDS011;3362;50.892;10.692;2023-06-26T02:14:47;10.82;;;4.13;;
6651;SDS011;3362;50.892;10.692;2023-06-26T02:17:15;6.18;;;4.40;;
6651;SDS011;3362;50.892;10.692;2023-06-26T02:19:42;11.68;;;4.75;;
6651;SDS011;3362;50.892;10.692;2023-06-26T02:22:12;6.25;;;4.25;;
6651;SDS011;3362;50.892;10.692;2023-06-26T02:24:38;6.70;;;3.97;;
6651;SDS011;3362;50.892;10.692;2023-06-26T02:27:04;5.78;;;4.18;;
6651;SDS011;3362;50.892;10.692;2023-06-26T02:29:30;7.10;;;4.15;;
6651;SDS011;3362;50.892;10.692;2023-06-26T02:31:57;11.88;;;4.45;;
6651;SDS011;3362;50.892;10.692;2023-06-26T02:34:23;8.32;;;4.05;;
6651;SDS011;3362;50.892;10.692;2023-06-26T02:36:50;6.40;;;3.90;;
6651;SDS011;3362;50.892;10.692;2023-06-26T02:39:19;6.85;;;3.70;;
6651;SDS011;3362;50.892;10.692;2023-06-26T02:41:45;5.68;;;3.90;;
6651;SDS011;3362;50.892;10.692;2023-06-26T02:44:12;5.65;;;3.75;;
6651;SDS011;3362;50.892;10.692;2023-06-26T02:46:39;9.68;;;3.95;;
6651;SDS011;3362;50.892;10.692;2023-06-26T02:49:05;7.28;;;3.70;;
6651;SDS011;3362;50.892;10.692;2023-06-26T02:51:32;6.18;;;3.95;;
6651;SDS011;3362;50.892;10.692;2023-06-26T02:53:59;8.68;;;4.85;;
6651;SDS011;3362;50.892;10.692;2023-06-26T02:56:25;6.72;;;4.15;;
6651;SDS011;3362;50.892;10.692;2023-06-26T02:58:53;5.75;;;3.78;;
6651;SDS011;3362;50.892;10.692;2023-06-26T03:01:20;9.00;;;4.03;;
6651;SDS011;3362;50.892;10.692;2023-06-26T03:03:46;8.70;;;4.50;;
6651;SDS011;3362;50.892;10.692;2023-06-26T03:06:13;8.32;;;4.55;;
6651;SDS011;3362;50.892;10.692;2023-06-26T03:08:39;6.00;;;3.78;;
6651;SDS011;3362;50.892;10.692;2023-06-26T03:11:07;7.43;;;3.45;;
6651;SDS011;3362;50.892;10.692;2023-06-26T03:13:33;5.95;;;3.13;;
6651;SDS011;3362;50.892;10.692;2023-06-26T03:15:59;7.22;;;4.10;;
6651;SDS011;3362;50.892;10.692;2023-06-26T03:18:26;7.40;;;4.10;;
6651;SDS011;3362;50.892;10.692;2023-06-26T03:20:52;7.10;;;4.43;;
6651;SDS011;3362;50.892;10.692;2023-06-26T03:23:19;10.30;;;4.18;;
6651;SDS011;3362;50.892;10.692;2023-06-26T03:25:46;6.95;;;4.05;;
6651;SDS011;3362;50.892;10.692;2023-06-26T03:28:13;8.40;;;4.60;;
6651;SDS011;3362;50.892;10.692;2023-06-26T03:30:40;6.32;;;4.25;;
6651;SDS011;3362;50.892;10.692;2023-06-26T03:33:06;5.43;;;3.53;;
6651;SDS011;3362;50.892;10.692;2023-06-26T03:35:32;8.10;;;4.28;;
6651;SDS011;3362;50.892;10.692;2023-06-26T03:37:59;7.65;;;4.30;;
6651;SDS011;3362;50.892;10.692;2023-06-26T03:40:25;10.65;;;4.38;;
6651;SDS011;3362;50.892;10.692;2023-06-26T03:42:52;11.07;;;3.97;;
6651;SDS011;3362;50.892;10.692;2023-06-26T03:45:19;6.55;;;4.25;;
6651;SDS011;3362;50.892;10.692;2023-06-26T03:47:46;7.72;;;4.40;;
6651;SDS011;3362;50.892;10.692;2023-06-26T03:50:14;12.95;;;4.82;;
6651;SDS011;3362;50.892;10.692;2023-06-26T03:52:40;11.82;;;3.53;;
6651;SDS011;3362;50.892;10.692;2023-06-26T03:55:06;8.98;;;3.60;;
6651;SDS011;3362;50.892;10.692;2023-06-26T03:57:33;14.52;;;4.78;;
6651;SDS011;3362;50.892;10.692;2023-06-26T03:59:59;8.27;;;4.78;;
6651;SDS011;3362;50.892;10.692;2023-06-26T04:02:26;6.15;;;4.40;;
6651;SDS011;3362;50.892;10.692;2023-06-26T04:04:53;16.52;;;7.43;;
6651;SDS011;3362;50.892;10.692;2023-06-26T04:07:19;9.55;;;3.88;;
6651;SDS011;3362;50.892;10.692;2023-06-26T04:09:45;12.00;;;4.53;;
6651;SDS011;3362;50.892;10.692;2023-06-26T04:12:11;6.80;;;3.75;;
6651;SDS011;3362;50.892;10.692;2023-06-26T04:14:37;7.07;;;4.43;;
6651;SDS011;3362;50.892;10.692;2023-06-26T04:17:03;8.20;;;5.32;;
6651;SDS011;3362;50.892;10.692;2023-06-26T04:19:31;6.82;;;3.78;;
6651;SDS011;3362;50.892;10.692;2023-06-26T04:21:57;10.30;;;4.57;;
6651;SDS011;3362;50.892;10.692;2023-06-26T04:24:23;12.20;;;4.40;;
6651;SDS011;3362;50.892;10.692;2023-06-26T04:26:50;13.27;;;4.43;;
6651;SDS011;3362;50.892;10.692;2023-06-26T04:29:16;8.95;;;4.05;;
6651;SDS011;3362;50.892;10.692;2023-06-26T04:31:42;10.43;;;4.25;;
6651;SDS011;3362;50.892;10.692;2023-06-26T04:34:11;7.72;;;4.32;;
6651;SDS011;3362;50.892;10.692;2023-06-26T04:36:38;6.13;;;3.85;;
6651;SDS011;3362;50.892;10.692;2023-06-26T04:39:05;7.93;;;3.97;;
6651;SDS011;3362;50.892;10.692;2023-06-26T04:41:31;12.88;;;4.97;;
6651;SDS011;3362;50.892;10.692;2023-06-26T04:43:57;8.75;;;4.13;;
6651;SDS011;3362;50.892;10.692;2023-06-26T04:46:23;10.10;;;4.30;;
6651;SDS011;3362;50.892;10.692;2023-06-26T04:48:49;6.13;;;3.83;;
6651;SDS011;3362;50.892;10.692;2023-06-26T04:51:15;5.93;;;3.60;;
6651;SDS011;3362;50.892;10.692;2023-06-26T04:53:47;9.43;;;4.47;;
6651;SDS011;3362;50.892;10.692;2023-06-26T04:56:13;13.50;;;5.57;;
6651;SDS011;3362;50.892;10.692;2023-06-26T04:58:39;9.95;;;4.60;;
6651;SDS011;3362;50.892;10.692;2023-06-26T05:01:05;13.13;;;5.00;;
6651;SDS011;3362;50.892;10.692;2023-06-26T05:03:32;8.77;;;3.75;;
6651;SDS011;3362;50.892;10.692;2023-06-26T05:06:00;8.27;;;5.22;;
6651;SDS011;3362;50.892;10.692;2023-06-26T05:08:26;7.72;;;3.95;;
6651;SDS011;3362;50.892;10.692;2023-06-26T05:10:53;7.60;;;3.97;;
6651;SDS011;3362;50.892;10.692;2023-06-26T05:13:22;13.40;;;5.82;;
6651;SDS011;3362;50.892;10.692;2023-06-26T05:15:48;7.28;;;4.57;;
6651;SDS011;3362;50.892;10.692;2023-06-26T05:18:15;8.77;;;4.32;;
6651;SDS011;3362;50.892;10.692;2023-06-26T05:20:41;9.15;;;4.45;;
6651;SDS011;3362;50.892;10.692;2023-06-26T05:23:08;10.52;;;4.97;;
6651;SDS011;3362;50.892;10.692;2023-06-26T05:25:36;8.13;;;4.05;;
6651;SDS011;3362;50.892;10.692;2023-06-26T05:28:04;12.77;;;4.93;;
6651;SDS011;3362;50.892;10.692;2023-06-26T05:30:31;7.72;;;4.53;;
6651;SDS011;3362;50.892;10.692;2023-06-26T05:32:59;7.43;;;4.57;;
6651;SDS011;3362;50.892;10.692;2023-06-26T05:35:27;10.35;;;4.28;;
6651;SDS011;3362;50.892;10.692;2023-06-26T05:37:53;10.18;;;4.45;;
6651;SDS011;3362;50.892;10.692;2023-06-26T05:40:21;7.60;;;3.92;;
6651;SDS011;3362;50.892;10.692;2023-06-26T05:42:47;5.90;;;3.75;;
6651;SDS011;3362;50.892;10.692;2023-06-26T05:45:15;4.93;;;3.58;;
6651;SDS011;3362;50.892;10.692;2023-06-26T05:47:41;9.23;;;4.25;;
6651;SDS011;3362;50.892;10.692;2023-06-26T05:50:08;8.38;;;4.22;;
6651;SDS011;3362;50.892;10.692;2023-06-26T05:52:35;7.93;;;3.83;;
6651;SDS011;3362;50.892;10.692;2023-06-26T05:55:01;7.53;;;4.32;;
6651;SDS011;3362;50.892;10.692;2023-06-26T05:57:28;11.35;;;5.78;;
6651;SDS011;3362;50.892;10.692;2023-06-26T05:59:55;8.60;;;4.20;;
6651;SDS011;3362;50.892;10.692;2023-06-26T06:02:23;11.68;;;4.53;;
6651;SDS011;3362;50.892;10.692;2023-06-26T06:04:49;6.00;;;4.10;;
6651;SDS011;3362;50.892;10.692;2023-06-26T06:07:15;11.23;;;4.38;;
6651;SDS011;3362;50.892;10.692;2023-06-26T06:09:41;8.13;;;4.43;;
6651;SDS011;3362;50.892;10.692;2023-06-26T06:12:07;6.13;;;3.92;;
6651;SDS011;3362;50.892;10.692;2023-06-26T06:14:34;8.50;;;5.18;;
6651;SDS011;3362;50.892;10.692;2023-06-26T06:17:00;7.68;;;4.22;;
6651;SDS011;3362;50.892;10.692;2023-06-26T06:19:28;5.03;;;3.47;;
6651;SDS011;3362;50.892;10.692;2023-06-26T06:21:54;5.32;;;3.63;;
6651;SDS011;3362;50.892;10.692;2023-06-26T06:24:20;4.43;;;3.20;;
6651;SDS011;3362;50.892;10.692;2023-06-26T06:26:47;6.47;;;3.50;;
6651;SDS011;3362;50.892;10.692;2023-06-26T06:29:13;15.63;;;4.97;;
6651;SDS011;3362;50.892;10.692;2023-06-26T06:31:39;9.75;;;4.07;;
6651;SDS011;3362;50.892;10.692;2023-06-26T06:34:05;4.40;;;3.85;;
6651;SDS011;3362;50.892;10.692;2023-06-26T06:36:33;4.38;;;3.28;;
6651;SDS011;3362;50.892;10.692;2023-06-26T06:39:00;8.02;;;3.25;;
6651;SDS011;3362;50.892;10.692;2023-06-26T06:41:26;3.88;;;3.03;;
6651;SDS011;3362;50.892;10.692;2023-06-26T06:43:52;4.30;;;3.30;;
6651;SDS011;3362;50.892;10.692;2023-06-26T06:46:18;4.35;;;3.45;;
6651;SDS011;3362;50.892;10.692;2023-06-26T06:48:44;3.63;;;2.78;;
6651;SDS011;3362;50.892;10.692;2023-06-26T06:51:11;3.28;;;2.95;;
6651;SDS011;3362;50.892;10.692;2023-06-26T06:53:39;3.42;;;2.83;;
6651;SDS011;3362;50.892;10.692;2023-06-26T06:56:05;3.63;;;2.95;;
6651;SDS011;3362;50.892;10.692;2023-06-26T06:58:31;4.32;;;3.30;;
6651;SDS011;3362;50.892;10.692;2023-06-26T07:00:58;10.18;;;2.55;;
6651;SDS011;3362;50.892;10.692;2023-06-26T07:03:27;7.60;;;3.08;;
6651;SDS011;3362;50.892;10.692;2023-06-26T07:05:53;3.25;;;2.88;;
6651;SDS011;3362;50.892;10.692;2023-06-26T07:08:19;4.07;;;3.00;;
6651;SDS011;3362;50.892;10.692;2023-06-26T07:10:47;3.75;;;2.65;;
6651;SDS011;3362;50.892;10.692;2023-06-26T07:13:13;6.18;;;3.35;;
6651;SDS011;3362;50.892;10.692;2023-06-26T07:15:39;6.15;;;3.33;;
6651;SDS011;3362;50.892;10.692;2023-06-26T07:18:06;3.35;;;2.88;;
6651;SDS011;3362;50.892;10.692;2023-06-26T07:20:32;4.10;;;2.85;;
6651;SDS011;3362;50.892;10.692;2023-06-26T07:22:58;6.18;;;3.20;;
6651;SDS011;3362;50.892;10.692;2023-06-26T07:25:24;3.92;;;3.03;;
6651;SDS011;3362;50.892;10.692;2023-06-26T07:27:52;3.47;;;2.55;;
6651;SDS011;3362;50.892;10.692;2023-06-26T07:30:18;5.43;;;3.50;;
6651;SDS011;3362;50.892;10.692;2023-06-26T07:32:44;5.00;;;2.65;;
6651;SDS011;3362;50.892;10.692;2023-06-26T07:35:10;2.85;;;2.53;;
6651;SDS011;3362;50.892;10.692;2023-06-26T07:37:37;4.05;;;2.72;;
6651;SDS011;3362;50.892;10.692;2023-06-26T07:40:03;6.22;;;2.97;;
6651;SDS011;3362;50.892;10.692;2023-06-26T07:42:29;3.35;;;3.05;;
6651;SDS011;3362;50.892;10.692;2023-06-26T07:44:57;7.85;;;3.35;;
6651;SDS011;3362;50.892;10.692;2023-06-26T07:47:23;5.60;;;3.17;;
6651;SDS011;3362;50.892;10.692;2023-06-26T07:49:49;5.65;;;2.95;;
6651;SDS011;3362;50.892;10.692;2023-06-26T07:52:15;4.07;;;2.55;;
6651;SDS011;3362;50.892;10.692;2023-06-26T07:54:42;3.83;;;3.03;;
6651;SDS011;3362;50.892;10.692;2023-06-26T07:57:08;4.70;;;3.03;;
6651;SDS011;3362;50.892;10.692;2023-06-26T07:59:36;4.05;;;3.30;;
6651;SDS011;3362;50.892;10.692;2023-06-26T08:02:04;3.95;;;2.80;;
6651;SDS011;3362;50.892;10.692;2023-06-26T08:04:30;3.90;;;2.85;;
6651;SDS011;3362;50.892;10.692;2023-06-26T08:06:57;3.88;;;2.88;;
6651;SDS011;3362;50.892;10.692;2023-06-26T08:09:24;2.90;;;2.60;;
6651;SDS011;3362;50.892;10.692;2023-06-26T08:11:50;4.10;;;3.22;;
6651;SDS011;3362;50.892;10.692;2023-06-26T08:14:16;3.58;;;2.60;;
6651;SDS011;3362;50.892;10.692;2023-06-26T08:16:43;4.35;;;3.03;;
6651;SDS011;3362;50.892;10.692;2023-06-26T08:19:11;7.13;;;3.20;;
6651;SDS011;3362;50.892;10.692;2023-06-26T08:21:37;4.22;;;2.97;;
6651;SDS011;3362;50.892;10.692;2023-06-26T08:24:04;4.50;;;3.00;;
6651;SDS011;3362;50.892;10.692;2023-06-26T08:26:30;4.80;;;3.13;;
6651;SDS011;3362;50.892;10.692;2023-06-26T08:28:56;5.82;;;2.97;;
6651;SDS011;3362;50.892;10.692;2023-06-26T08:31:22;5.57;;;3.03;;
6651;SDS011;3362;50.892;10.692;2023-06-26T08:33:48;4.30;;;3.35;;
6651;SDS011;3362;50.892;10.692;2023-06-26T08:36:16;3.55;;;3.17;;
6651;SDS011;3362;50.892;10.692;2023-06-26T08:38:42;3.80;;;2.88;;
6651;SDS011;3362;50.892;10.692;2023-06-26T08:41:09;7.75;;;3.53;;
6651;SDS011;3362;50.892;10.692;2023-06-26T08:43:35;5.25;;;3.60;;
6651;SDS011;3362;50.892;10.692;2023-06-26T08:46:01;5.07;;;3.40;;
6651;SDS011;3362;50.892;10.692;2023-06-26T08:48:28;4.22;;;2.90;;
6651;SDS011;3362;50.892;10.692;2023-06-26T08:50:55;3.92;;;2.97;;
6651;SDS011;3362;50.892;10.692;2023-06-26T08:53:27;9.18;;;3.53;;
6651;SDS011;3362;50.892;10.692;2023-06-26T08:55:55;3.88;;;3.25;;
6651;SDS011;3362;50.892;10.692;2023-06-26T08:58:22;5.22;;;3.20;;
6651;SDS011;3362;50.892;10.692;2023-06-26T09:00:48;4.47;;;3.05;;
6651;SDS011;3362;50.892;10.692;2023-06-26T09:03:15;5.75;;;3.70;;
6651;SDS011;3362;50.892;10.692;2023-06-26T09:05:41;4.30;;;2.78;;
6651;SDS011;3362;50.892;10.692;2023-06-26T09:08:08;3.45;;;3.03;;
6651;SDS011;3362;50.892;10.692;2023-06-26T09:10:36;4.60;;;3.28;;
6651;SDS011;3362;50.892;10.692;2023-06-26T09:13:02;4.70;;;2.92;;
6651;SDS011;3362;50.892;10.692;2023-06-26T09:15:36;5.95;;;2.83;;
6651;SDS011;3362;50.892;10.692;2023-06-26T09:18:04;4.18;;;3.20;;
6651;SDS011;3362;50.892;10.692;2023-06-26T09:20:30;6.10;;;4.18;;
6651;SDS011;3362;50.892;10.692;2023-06-26T09:22:58;7.57;;;3.50;;
6651;SDS011;3362;50.892;10.692;2023-06-26T09:25:24;4.82;;;3.33;;
6651;SDS011;3362;50.892;10.692;2023-06-26T09:27:52;5.28;;;3.58;;
6651;SDS011;3362;50.892;10.692;2023-06-26T09:30:19;5.35;;;3.35;;
6651;SDS011;3362;50.892;10.692;2023-06-26T09:32:45;5.68;;;3.17;;
6651;SDS011;3362;50.892;10.692;2023-06-26T09:35:12;5.88;;;3.05;;
6651;SDS011;3362;50.892;10.692;2023-06-26T09:37:38;4.10;;;2.90;;
6651;SDS011;3362;50.892;10.692;2023-06-26T09:40:05;4.07;;;2.92;;
6651;SDS011;3362;50.892;10.692;2023-06-26T09:42:31;5.10;;;3.20;;
6651;SDS011;3362;50.892;10.692;2023-06-26T09:44:59;4.93;;;2.78;;
6651;SDS011;3362;50.892;10.692;2023-06-26T09:47:25;6.70;;;3.83;;
6651;SDS011;3362;50.892;10.692;2023-06-26T09:49:51;5.78;;;3.50;;
6651;SDS011;3362;50.892;10.692;2023-06-26T09:52:19;4.80;;;3.22;;
6651;SDS011;3362;50.892;10.692;2023-06-26T09:54:46;4.22;;;3.33;;
6651;SDS011;3362;50.892;10.692;2023-06-26T09:57:12;4.13;;;3.35;;
6651;SDS011;3362;50.892;10.692;2023-06-26T09:59:39;6.55;;;4.07;;
6651;SDS011;3362;50.892;10.692;2023-06-26T10:02:07;4.05;;;3.17;;
6651;SDS011;3362;50.892;10.692;2023-06-26T10:04:34;5.97;;;4.15;;
6651;SDS011;3362;50.892;10.692;2023-06-26T10:07:01;4.05;;;3.60;;
6651;SDS011;3362;50.892;10.692;2023-06-26T10:09:27;5.22;;;4.00;;
6651;SDS011;3362;50.892;10.692;2023-06-26T10:11:55;7.35;;;4.20;;
6651;SDS011;3362;50.892;10.692;2023-06-26T10:14:22;4.00;;;3.25;;
6651;SDS011;3362;50.892;10.692;2023-06-26T10:16:51;5.78;;;3.47;;
6651;SDS011;3362;50.892;10.692;2023-06-26T10:19:19;6.97;;;2.90;;
6651;SDS011;3362;50.892;10.692;2023-06-26T10:21:50;3.25;;;2.88;;
6651;SDS011;3362;50.892;10.692;2023-06-26T10:24:16;4.22;;;3.40;;
6651;SDS011;3362;50.892;10.692;2023-06-26T10:26:44;4.43;;;3.40;;
6651;SDS011;3362;50.892;10.692;2023-06-26T10:29:10;3.67;;;3.38;;
6651;SDS011;3362;50.892;10.692;2023-06-26T10:31:37;4.22;;;3.33;;
6651;SDS011;3362;50.892;10.692;2023-06-26T10:34:05;4.68;;;3.70;;
6651;SDS011;3362;50.892;10.692;2023-06-26T10:36:32;12.77;;;4.03;;
6651;SDS011;3362;50.892;10.692;2023-06-26T10:39:02;5.10;;;3.47;;
6651;SDS011;3362;50.892;10.692;2023-06-26T10:41:30;5.45;;;3.75;;
6651;SDS011;3362;50.892;10.692;2023-06-26T10:44:08;5.28;;;4.03;;
6651;SDS011;3362;50.892;10.692;2023-06-26T10:46:47;5.43;;;3.63;;
6651;SDS011;3362;50.892;10.692;2023-06-26T10:49:14;5.38;;;3.75;;
6651;SDS011;3362;50.892;10.692;2023-06-26T10:51:45;5.13;;;3.42;;
6651;SDS011;3362;50.892;10.692;2023-06-26T10:54:13;4.60;;;3.67;;
6651;SDS011;3362;50.892;10.692;2023-06-26T10:56:42;5.28;;;3.33;;
6651;SDS011;3362;50.892;10.692;2023-06-26T10:59:15;5.53;;;4.03;;
6651;SDS011;3362;50.892;10.692;2023-06-26T11:01:43;4.13;;;3.58;;
6651;SDS011;3362;50.892;10.692;2023-06-26T11:04:09;6.00;;;4.80;;
6651;SDS011;3362;50.892;10.692;2023-06-26T11:06:37;4.50;;;3.53;;
6651;SDS011;3362;50.892;10.692;2023-06-26T11:09:09;6.25;;;4.00;;
6651;SDS011;3362;50.892;10.692;2023-06-26T11:11:58;4.38;;;3.45;;
6651;SDS011;3362;50.892;10.692;2023-06-26T11:14:27;3.50;;;3.03;;
6651;SDS011;3362;50.892;10.692;2023-06-26T11:16:54;4.82;;;3.15;;
6651;SDS011;3362;50.892;10.692;2023-06-26T11:19:21;4.90;;;3.40;;
6651;SDS011;3362;50.892;10.692;2023-06-26T11:21:47;5.45;;;3.47;;
6651;SDS011;3362;50.892;10.692;2023-06-26T11:24:15;4.07;;;2.88;;
6651;SDS011;3362;50.892;10.692;2023-06-26T11:26:42;6.20;;;3.05;;
6651;SDS011;3362;50.892;10.692;2023-06-26T11:29:09;5.07;;;3.67;;
6651;SDS011;3362;50.892;10.692;2023-06-26T11:31:36;3.47;;;3.10;;
6651;SDS011;3362;50.892;10.692;2023-06-26T11:34:03;4.18;;;3.30;;
6651;SDS011;3362;50.892;10.692;2023-06-26T11:36:29;4.47;;;3.30;;
6651;SDS011;3362;50.892;10.692;2023-06-26T11:38:56;7.03;;;3.60;;
6651;SDS011;3362;50.892;10.692;2023-06-26T11:41:24;4.15;;;3.15;;
6651;SDS011;3362;50.892;10.692;2023-06-26T11:43:50;4.38;;;2.97;;
6651;SDS011;3362;50.892;10.692;2023-06-26T11:46:17;6.32;;;3.60;;
6651;SDS011;3362;50.892;10.692;2023-06-26T11:48:43;3.72;;;3.40;;
6651;SDS011;3362;50.892;10.692;2023-06-26T11:51:12;4.57;;;2.92;;
6651;SDS011;3362;50.892;10.692;2023-06-26T11:53:39;4.55;;;3.47;;
6651;SDS011;3362;50.892;10.692;2023-06-26T11:56:07;6.72;;;3.60;;
6651;SDS011;3362;50.892;10.692;2023-06-26T11:58:34;5.68;;;3.60;;
6651;SDS011;3362;50.892;10.692;2023-06-26T12:01:00;4.15;;;3.20;;
6651;SDS011;3362;50.892;10.692;2023-06-26T12:03:27;3.55;;;2.95;;
6651;SDS011;3362;50.892;10.692;2023-06-26T12:05:54;11.20;;;4.07;;
6651;SDS011;3362;50.892;10.692;2023-06-26T12:08:21;4.90;;;3.05;;
6651;SDS011;3362;50.892;10.692;2023-06-26T12:10:47;8.30;;;3.20;;
6651;SDS011;3362;50.892;10.692;2023-06-26T12:13:14;3.45;;;3.10;;
6651;SDS011;3362;50.892;10.692;2023-06-26T12:15:41;4.60;;;3.65;;
6651;SDS011;3362;50.892;10.692;2023-06-26T12:18:08;6.22;;;3.55;;
6651;SDS011;3362;50.892;10.692;2023-06-26T12:20:39;4.18;;;3.78;;
6651;SDS011;3362;50.892;10.692;2023-06-26T12:23:11;4.88;;;3.85;;
6651;SDS011;3362;50.892;10.692;2023-06-26T12:25:37;3.83;;;3.35;;
6651;SDS011;3362;50.892;10.692;2023-06-26T12:28:03;5.95;;;3.53;;
6651;SDS011;3362;50.892;10.692;2023-06-26T12:30:29;7.63;;;3.25;;
6651;SDS011;3362;50.892;10.692;2023-06-26T12:32:57;4.72;;;3.63;;
6651;SDS011;3362;50.892;10.692;2023-06-26T12:35:23;7.22;;;3.42;;
6651;SDS011;3362;50.892;10.692;2023-06-26T12:37:49;4.38;;;3.35;;
6651;SDS011;3362;50.892;10.692;2023-06-26T12:40:16;6.97;;;3.28;;
6651;SDS011;3362;50.892;10.692;2023-06-26T12:42:42;6.43;;;3.33;;
6651;SDS011;3362;50.892;10.692;2023-06-26T12:45:12;5.72;;;3.92;;
6651;SDS011;3362;50.892;10.692;2023-06-26T12:47:38;7.78;;;3.47;;
6651;SDS011;3362;50.892;10.692;2023-06-26T12:50:07;4.55;;;3.85;;
6651;SDS011;3362;50.892;10.692;2023-06-26T12:52:34;5.53;;;3.75;;
6651;SDS011;3362;50.892;10.692;2023-06-26T12:55:00;3.97;;;3.35;;
6651;SDS011;3362;50.892;10.692;2023-06-26T12:57:26;6.15;;;4.30;;
6651;SDS011;3362;50.892;10.692;2023-06-26T12:59:52;5.47;;;3.88;;
6651;SDS011;3362;50.892;10.692;2023-06-26T13:02:19;5.07;;;3.95;;
6651;SDS011;3362;50.892;10.692;2023-06-26T13:04:45;4.70;;;3.67;;
6651;SDS011;3362;50.892;10.692;2023-06-26T13:07:12;4.90;;;4.05;;
6651;SDS011;3362;50.892;10.692;2023-06-26T13:09:39;8.13;;;3.70;;
6651;SDS011;3362;50.892;10.692;2023-06-26T13:12:06;5.68;;;3.72;;
6651;SDS011;3362;50.892;10.692;2023-06-26T13:14:32;4.65;;;3.75;;
6651;SDS011;3362;50.892;10.692;2023-06-26T13:16:59;6.28;;;4.22;;
6651;SDS011;3362;50.892;10.692;2023-06-26T13:19:25;9.93;;;4.10;;
6651;SDS011;3362;50.892;10.692;2023-06-26T13:21:52;4.95;;;3.97;;
6651;SDS011;3362;50.892;10.692;2023-06-26T13:24:19;6.25;;;4.03;;
6651;SDS011;3362;50.892;10.692;2023-06-26T13:26:45;6.18;;;4.32;;
6651;SDS011;3362;50.892;10.692;2023-06-26T13:29:12;5.88;;;3.88;;
6651;SDS011;3362;50.892;10.692;2023-06-26T13:31:38;4.57;;;4.07;;
6651;SDS011;3362;50.892;10.692;2023-06-26T13:34:04;5.07;;;3.58;;
6651;SDS011;3362;50.892;10.692;2023-06-26T13:36:30;5.18;;;3.80;;
6651;SDS011;3362;50.892;10.692;2023-06-26T13:38:59;8.18;;;4.30;;
6651;SDS011;3362;50.892;10.692;2023-06-26T13:41:27;4.55;;;4.03;;
6651;SDS011;3362;50.892;10.692;2023-06-26T13:43:53;5.28;;;4.10;;
6651;SDS011;3362;50.892;10.692;2023-06-26T13:46:19;4.80;;;3.88;;
6651;SDS011;3362;50.892;10.692;2023-06-26T13:48:46;5.43;;;3.97;;
6651;SDS011;3362;50.892;10.692;2023-06-26T13:51:12;5.25;;;4.07;;
6651;SDS011;3362;50.892;10.692;2023-06-26T13:53:39;8.07;;;4.13;;
6651;SDS011;3362;50.892;10.692;2023-06-26T13:56:05;4.05;;;3.65;;
6651;SDS011;3362;50.892;10.692;2023-06-26T13:58:35;5.88;;;4.13;;
6651;SDS011;3362;50.892;10.692;2023-06-26T14:01:01;7.72;;;4.22;;
6651;SDS011;3362;50.892;10.692;2023-06-26T14:03:28;6.93;;;4.30;;
6651;SDS011;3362;50.892;10.692;2023-06-26T14:05:54;6.50;;;4.22;;
6651;SDS011;3362;50.892;10.692;2023-06-26T14:08:20;7.18;;;4.47;;
6651;SDS011;3362;50.892;10.692;2023-06-26T14:10:46;5.35;;;4.43;;
6651;SDS011;3362;50.892;10.692;2023-06-26T14:13:13;5.10;;;4.10;;
6651;SDS011;3362;50.892;10.692;2023-06-26T14:15:42;6.40;;;4.50;;
6651;SDS011;3362;50.892;10.692;2023-06-26T14:18:08;10.13;;;5.05;;
6651;SDS011;3362;50.892;10.692;2023-06-26T14:20:34;6.68;;;5.03;;
6651;SDS011;3362;50.892;10.692;2023-06-26T14:23:01;9.45;;;5.10;;
6651;SDS011;3362;50.892;10.692;2023-06-26T14:25:27;6.05;;;5.05;;
6651;SDS011;3362;50.892;10.692;2023-06-26T14:27:54;7.53;;;5.18;;
6651;SDS011;3362;50.892;10.692;2023-06-26T14:30:20;5.95;;;4.72;;
6651;SDS011;3362;50.892;10.692;2023-06-26T14:32:48;5.28;;;4.57;;
6651;SDS011;3362;50.892;10.692;2023-06-26T14:35:14;7.10;;;4.38;;
6651;SDS011;3362;50.892;10.692;2023-06-26T14:37:40;5.50;;;4.43;;
6651;SDS011;3362;50.892;10.692;2023-06-26T14:40:09;9.45;;;4.50;;
6651;SDS011;3362;50.892;10.692;2023-06-26T14:42:35;9.23;;;4.25;;
6651;SDS011;3362;50.892;10.692;2023-06-26T14:45:01;5.90;;;4.88;;
6651;SDS011;3362;50.892;10.692;2023-06-26T14:47:28;7.50;;;4.40;;
6651;SDS011;3362;50.892;10.692;2023-06-26T14:49:55;8.90;;;4.75;;
6651;SDS011;3362;50.892;10.692;2023-06-26T14:52:21;8.07;;;5.05;;
6651;SDS011;3362;50.892;10.692;2023-06-26T14:54:48;6.68;;;4.93;;
6651;SDS011;3362;50.892;10.692;2023-06-26T14:57:14;7.80;;;4.68;;
6651;SDS011;3362;50.892;10.692;2023-06-26T14:59:40;9.40;;;5.50;;